Lundy Sentinel — 2IGM8 — position and weather

sailwx.info

Track history (hours):
 
Tides and Currents Weather Stations Pressure Air Temp Water Temp Dewpoint Dewpoint Depression Visibility Wind Speed Wind Dir Waves Ship Positions

Lundy Sentinel

Last reported at 2018-Apr-27 05:00 UTC. Time now 2018-Apr-27 05:06 UTC.
Position N 44°30' E 028°59'.

Length 61 m; draft 4.5 m.

Type: SAR. MMSI: 235109552.

Date/timePositionNaut miles runAvg speedWind from/ knotsBaromVisibWave heightAir tempDewpointWater temp
2018-Apr-27 05:00N 44°30' E 028°59'3 6.0
2018-Apr-27 04:30N 44°28' E 028°56'3 5.9
2018-Apr-27 04:00N 44°26' E 028°53'0 0.9
2018-Apr-27 03:30N 44°25' E 028°53'1 1.9
2018-Apr-27 03:00N 44°26' E 028°54'1 1.8
2018-Apr-27 02:30N 44°27' E 028°55'1 1.8
2018-Apr-27 02:00N 44°27' E 028°55'1 1.7
2018-Apr-27 01:30N 44°28' E 028°56'1 1.7
2018-Apr-27 01:00N 44°29' E 028°57'1 1.7
2018-Apr-27 00:30N 44°29' E 028°58'1 1.7
2018-Apr-27 00:00N 44°30' E 028°58'0 0.5
2018-Apr-26 23:30N 44°30' E 028°58'2 3.3
2018-Apr-26 23:00N 44°29' E 028°57'2 3.2
2018-Apr-26 22:30N 44°28' E 028°56'2 3.1
2018-Apr-26 22:00N 44°26' E 028°54'2 3.1
2018-Apr-26 21:30N 44°25' E 028°53'2 3.1
2018-Apr-26 21:00N 44°24' E 028°52'2 3.1
2018-Apr-26 20:30N 44°23' E 028°50'2 3.1
2018-Apr-26 20:00N 44°21' E 028°49'2 3.2
2018-Apr-26 19:30N 44°20' E 028°48'2 3.2
2018-Apr-26 19:00N 44°19' E 028°46'2 3.0
2018-Apr-26 18:30N 44°18' E 028°45'2 3.0
2018-Apr-26 18:00N 44°16' E 028°45'3 5.2
2018-Apr-26 17:30N 44°14' E 028°46'2 3.3
2018-Apr-26 17:00N 44°13' E 028°48'3 5.6
2018-Apr-26 16:30N 44°14' E 028°52'3 6.8
2018-Apr-26 16:00N 44°15' E 028°56'3 6.7
2018-Apr-26 15:30N 44°16' E 029°01'3 6.8
2018-Apr-26 15:00N 44°19' E 029°03'3 6.8
2018-Apr-26 14:30N 44°22' E 029°05'3 6.8
2018-Apr-26 14:00N 44°25' E 029°07'3 6.8
2018-Apr-26 13:30N 44°28' E 029°08'3 7.0
2018-Apr-26 13:00N 44°32' E 029°09'2 4.7
2018-Apr-26 12:30N 44°33' E 029°12'4 7.1
2018-Apr-26 12:00N 44°32' E 029°16'4 7.1
2018-Apr-26 11:30N 44°31' E 029°21'4 7.1
2018-Apr-26 11:00N 44°30' E 029°26'3 6.7
2018-Apr-26 10:30N 44°28' E 029°30'4 7.3
2018-Apr-26 10:00N 44°26' E 029°33'4 7.1
2018-Apr-26 09:30N 44°23' E 029°37'4 7.2
2018-Apr-26 09:00N 44°21' E 029°41'4 7.2
2018-Apr-26 08:30N 44°18' E 029°44'4 7.1
2018-Apr-26 08:00N 44°16' E 029°48'4 7.3
2018-Apr-26 07:30N 44°13' E 029°52'4 7.3
2018-Apr-26 07:00N 44°11' E 029°55'4 7.5
2018-Apr-26 06:30N 44°08' E 029°59'2 3.7
2018-Apr-26 06:00N 44°07' E 030°01'0 0.4
2018-Apr-26 05:20N 44°06' E 030°01'1 4.0
2018-Apr-26 04:58N 44°05' E 030°01'4 2.3
2018-Apr-26 03:04N 44°01' E 030°01'20 4.9
2018-Apr-25 23:04N 44°19' E 030°08'0 5.0
2018-Apr-25 23:00N 44°20' E 030°09'3 5.0
2018-Apr-25 22:28N 44°22' E 030°10'3 5.3
2018-Apr-25 22:00N 44°25' E 030°11'3 5.7
2018-Apr-25 21:30N 44°27' E 030°12'3 5.7
2018-Apr-25 21:00N 44°30' E 030°13'3 5.7
2018-Apr-25 20:30N 44°33' E 030°14'3 5.5
2018-Apr-25 20:00N 44°35' E 030°15'7 2.8
2018-Apr-25 17:31N 44°42' E 030°19'010.5
2018-Apr-25 17:30N 44°42' E 030°19'611.2
2018-Apr-25 17:00N 44°36' E 030°17'510.7
2018-Apr-25 16:30N 44°31' E 030°15'0 0.8
2018-Apr-25 16:00N 44°31' E 030°16'3 3.3
2018-Apr-25 14:58N 44°34' E 030°15'2 3.6
2018-Apr-25 14:20N 44°36' E 030°13'2 4.6
2018-Apr-25 13:51N 44°36' E 030°10'2 5.5
2018-Apr-25 13:29N 44°37' E 030°07'23 1.6
2018-Apr-24 23:30N 44°42' E 029°36'11 6.6
2018-Apr-24 21:48N 44°35' E 029°24'2 7.0
2018-Apr-24 21:30N 44°33' E 029°22'4 7.0
2018-Apr-24 21:00N 44°31' E 029°18'3 7.0
2018-Apr-24 20:30N 44°29' E 029°14'4 7.0
2018-Apr-24 20:00N 44°26' E 029°11'3 6.6
2018-Apr-24 19:30N 44°24' E 029°07'3 6.6
2018-Apr-24 19:00N 44°22' E 029°04'3 5.9
2018-Apr-24 18:30N 44°21' E 029°00'3 6.4
2018-Apr-24 18:00N 44°17' E 028°59'3 6.3
2018-Apr-24 17:30N 44°15' E 028°57'2 4.8
2018-Apr-24 17:00N 44°15' E 028°54'4 8.0
2018-Apr-24 16:30N 44°19' E 028°52'3 5.2
2018-Apr-24 16:00N 44°21' E 028°49'5 9.2
2018-Apr-24 15:30N 44°16' E 028°51'5 9.0
2018-Apr-24 15:00N 44°12' E 028°52'5 9.2
2018-Apr-24 14:30N 44°07' E 028°52'5 9.2
2018-Apr-24 14:00N 44°03' E 028°51'5 9.3
2018-Apr-24 13:30N 43°58' E 028°50'4 8.1
2018-Apr-24 13:00N 43°55' E 028°47'3 6.5
2018-Apr-24 12:30N 43°52' E 028°44'3 6.5
2018-Apr-24 12:00N 43°50' E 028°42'3 6.4
2018-Apr-24 11:30N 43°47' E 028°39'3 6.9
2018-Apr-24 11:00N 43°43' E 028°39'510.6
2018-Apr-24 10:30N 43°38' E 028°39'510.4
2018-Apr-24 10:00N 43°33' E 028°39'510.3
2018-Apr-24 09:30N 43°28' E 028°37'510.1
2018-Apr-24 08:59N 43°23' E 028°34'5 9.8
2018-Apr-24 08:30N 43°19' E 028°31'27 9.8
2018-Apr-24 05:45N 42°57' E 028°09'3 9.8
2018-Apr-24 05:29N 42°55' E 028°07'1 2.1
2018-Apr-24 05:00N 42°55' E 028°06'4 7.5
2018-Apr-24 04:30N 42°52' E 028°02'3 5.6
2018-Apr-24 04:00N 42°50' E 027°60'46 4.4
2018-Apr-23 17:36N 42°10' E 028°29'1 5.6
2018-Apr-23 17:29N 42°10' E 028°28'  
Track history (hours):
 
Tides and Currents Weather Stations Pressure Air Temp Water Temp Dewpoint Dewpoint Depression Visibility Wind Speed Wind Dir Waves Ship Positions

Lundy Sentinel

Last reported at 2018-Apr-27 05:00 UTC. Time now 2018-Apr-27 05:06 UTC.
Position N 44°30' E 028°59'.

Length 61 m; draft 4.5 m.

Type: SAR. MMSI: 235109552.

Date/timePositionNaut miles runAvg speedWind from/ knotsBaromVisibWave heightAir tempDewpointWater temp
2018-Apr-27 05:00N 44°30' E 028°59'3 6.0
2018-Apr-27 04:30N 44°28' E 028°56'3 5.9
2018-Apr-27 04:00N 44°26' E 028°53'0 0.9
2018-Apr-27 03:30N 44°25' E 028°53'1 1.9
2018-Apr-27 03:00N 44°26' E 028°54'1 1.8
2018-Apr-27 02:30N 44°27' E 028°55'1 1.8
2018-Apr-27 02:00N 44°27' E 028°55'1 1.7
2018-Apr-27 01:30N 44°28' E 028°56'1 1.7
2018-Apr-27 01:00N 44°29' E 028°57'1 1.7
2018-Apr-27 00:30N 44°29' E 028°58'1 1.7
2018-Apr-27 00:00N 44°30' E 028°58'0 0.5
2018-Apr-26 23:30N 44°30' E 028°58'2 3.3
2018-Apr-26 23:00N 44°29' E 028°57'2 3.2
2018-Apr-26 22:30N 44°28' E 028°56'2 3.1
2018-Apr-26 22:00N 44°26' E 028°54'2 3.1
2018-Apr-26 21:30N 44°25' E 028°53'2 3.1
2018-Apr-26 21:00N 44°24' E 028°52'2 3.1
2018-Apr-26 20:30N 44°23' E 028°50'2 3.1
2018-Apr-26 20:00N 44°21' E 028°49'2 3.2
2018-Apr-26 19:30N 44°20' E 028°48'2 3.2
2018-Apr-26 19:00N 44°19' E 028°46'2 3.0
2018-Apr-26 18:30N 44°18' E 028°45'2 3.0
2018-Apr-26 18:00N 44°16' E 028°45'3 5.2
2018-Apr-26 17:30N 44°14' E 028°46'2 3.3
2018-Apr-26 17:00N 44°13' E 028°48'3 5.6
2018-Apr-26 16:30N 44°14' E 028°52'3 6.8
2018-Apr-26 16:00N 44°15' E 028°56'3 6.7
2018-Apr-26 15:30N 44°16' E 029°01'3 6.8
2018-Apr-26 15:00N 44°19' E 029°03'3 6.8
2018-Apr-26 14:30N 44°22' E 029°05'3 6.8
2018-Apr-26 14:00N 44°25' E 029°07'3 6.8
2018-Apr-26 13:30N 44°28' E 029°08'3 7.0
2018-Apr-26 13:00N 44°32' E 029°09'2 4.7
2018-Apr-26 12:30N 44°33' E 029°12'4 7.1
2018-Apr-26 12:00N 44°32' E 029°16'4 7.1
2018-Apr-26 11:30N 44°31' E 029°21'4 7.1
2018-Apr-26 11:00N 44°30' E 029°26'3 6.7
2018-Apr-26 10:30N 44°28' E 029°30'4 7.3
2018-Apr-26 10:00N 44°26' E 029°33'4 7.1
2018-Apr-26 09:30N 44°23' E 029°37'4 7.2
2018-Apr-26 09:00N 44°21' E 029°41'4 7.2
2018-Apr-26 08:30N 44°18' E 029°44'4 7.1
2018-Apr-26 08:00N 44°16' E 029°48'4 7.3
2018-Apr-26 07:30N 44°13' E 029°52'4 7.3
2018-Apr-26 07:00N 44°11' E 029°55'4 7.5
2018-Apr-26 06:30N 44°08' E 029°59'2 3.7
2018-Apr-26 06:00N 44°07' E 030°01'0 0.4
2018-Apr-26 05:20N 44°06' E 030°01'1 4.0
2018-Apr-26 04:58N 44°05' E 030°01'4 2.3
2018-Apr-26 03:04N 44°01' E 030°01'20 4.9
2018-Apr-25 23:04N 44°19' E 030°08'0 5.0
2018-Apr-25 23:00N 44°20' E 030°09'3 5.0
2018-Apr-25 22:28N 44°22' E 030°10'3 5.3
2018-Apr-25 22:00N 44°25' E 030°11'3 5.7
2018-Apr-25 21:30N 44°27' E 030°12'3 5.7
2018-Apr-25 21:00N 44°30' E 030°13'3 5.7
2018-Apr-25 20:30N 44°33' E 030°14'3 5.5
2018-Apr-25 20:00N 44°35' E 030°15'7 2.8
2018-Apr-25 17:31N 44°42' E 030°19'010.5
2018-Apr-25 17:30N 44°42' E 030°19'611.2
2018-Apr-25 17:00N 44°36' E 030°17'510.7
2018-Apr-25 16:30N 44°31' E 030°15'0 0.8
2018-Apr-25 16:00N 44°31' E 030°16'3 3.3
2018-Apr-25 14:58N 44°34' E 030°15'2 3.6
2018-Apr-25 14:20N 44°36' E 030°13'2 4.6
2018-Apr-25 13:51N 44°36' E 030°10'2 5.5
2018-Apr-25 13:29N 44°37' E 030°07'23 1.6
2018-Apr-24 23:30N 44°42' E 029°36'11 6.6
2018-Apr-24 21:48N 44°35' E 029°24'2 7.0
2018-Apr-24 21:30N 44°33' E 029°22'4 7.0
2018-Apr-24 21:00N 44°31' E 029°18'3 7.0
2018-Apr-24 20:30N 44°29' E 029°14'4 7.0
2018-Apr-24 20:00N 44°26' E 029°11'3 6.6
2018-Apr-24 19:30N 44°24' E 029°07'3 6.6
2018-Apr-24 19:00N 44°22' E 029°04'3 5.9
2018-Apr-24 18:30N 44°21' E 029°00'3 6.4
2018-Apr-24 18:00N 44°17' E 028°59'3 6.3
2018-Apr-24 17:30N 44°15' E 028°57'2 4.8
2018-Apr-24 17:00N 44°15' E 028°54'4 8.0
2018-Apr-24 16:30N 44°19' E 028°52'3 5.2
2018-Apr-24 16:00N 44°21' E 028°49'5 9.2
2018-Apr-24 15:30N 44°16' E 028°51'5 9.0
2018-Apr-24 15:00N 44°12' E 028°52'5 9.2
2018-Apr-24 14:30N 44°07' E 028°52'5 9.2
2018-Apr-24 14:00N 44°03' E 028°51'5 9.3
2018-Apr-24 13:30N 43°58' E 028°50'4 8.1
2018-Apr-24 13:00N 43°55' E 028°47'3 6.5
2018-Apr-24 12:30N 43°52' E 028°44'3 6.5
2018-Apr-24 12:00N 43°50' E 028°42'3 6.4
2018-Apr-24 11:30N 43°47' E 028°39'3 6.9
2018-Apr-24 11:00N 43°43' E 028°39'510.6
2018-Apr-24 10:30N 43°38' E 028°39'510.4
2018-Apr-24 10:00N 43°33' E 028°39'510.3
2018-Apr-24 09:30N 43°28' E 028°37'510.1
2018-Apr-24 08:59N 43°23' E 028°34'5 9.8
2018-Apr-24 08:30N 43°19' E 028°31'27 9.8
2018-Apr-24 05:45N 42°57' E 028°09'3 9.8
2018-Apr-24 05:29N 42°55' E 028°07'1 2.1
2018-Apr-24 05:00N 42°55' E 028°06'4 7.5
2018-Apr-24 04:30N 42°52' E 028°02'3 5.6
2018-Apr-24 04:00N 42°50' E 027°60'46 4.4
2018-Apr-23 17:36N 42°10' E 028°29'1 5.6
2018-Apr-23 17:29N 42°10' E 028°28'  

Dump ship's entire track history